sensor_id;sensor_type;location;lat;lon;timestamp;pressure;altitude;pressure_sealevel;temperature;humidity
65614;BME280;52283;49.292;10.572;2023-06-26T00:00:05;96512.56;;;18.10;79.03
65614;BME280;52283;49.292;10.572;2023-06-26T00:02:33;96513.13;;;17.88;79.62
65614;BME280;52283;49.292;10.572;2023-06-26T00:04:59;96514.16;;;18.19;79.36
65614;BME280;52283;49.292;10.572;2023-06-26T00:07:27;96510.13;;;18.35;78.03
65614;BME280;52283;49.292;10.572;2023-06-26T00:09:54;96502.06;;;18.47;77.33
65614;BME280;52283;49.292;10.572;2023-06-26T00:12:20;96512.25;;;18.42;77.12
65614;BME280;52283;49.292;10.572;2023-06-26T00:14:47;96514.00;;;18.53;77.04
65614;BME280;52283;49.292;10.572;2023-06-26T00:17:14;96510.84;;;18.56;76.83
65614;BME280;52283;49.292;10.572;2023-06-26T00:19:41;96512.47;;;18.52;77.13
65614;BME280;52283;49.292;10.572;2023-06-26T00:22:07;96517.91;;;18.42;77.72
65614;BME280;52283;49.292;10.572;2023-06-26T00:24:34;96507.03;;;18.25;78.25
65614;BME280;52283;49.292;10.572;2023-06-26T00:27:00;96518.63;;;18.14;78.65
65614;BME280;52283;49.292;10.572;2023-06-26T00:29:27;96511.19;;;18.04;78.62
65614;BME280;52283;49.292;10.572;2023-06-26T00:31:53;96519.63;;;17.96;79.13
65614;BME280;52283;49.292;10.572;2023-06-26T00:34:21;96521.19;;;18.05;78.99
65614;BME280;52283;49.292;10.572;2023-06-26T00:36:48;96525.31;;;18.04;79.08
65614;BME280;52283;49.292;10.572;2023-06-26T00:39:15;96517.44;;;18.10;79.70
65614;BME280;52283;49.292;10.572;2023-06-26T00:41:42;96523.41;;;17.98;81.32
65614;BME280;52283;49.292;10.572;2023-06-26T00:44:08;96524.91;;;18.00;81.49
65614;BME280;52283;49.292;10.572;2023-06-26T00:46:35;96529.41;;;17.74;82.83
65614;BME280;52283;49.292;10.572;2023-06-26T00:49:02;96544.13;;;16.86;90.34
65614;BME280;52283;49.292;10.572;2023-06-26T00:51:31;96530.38;;;16.69;91.68
65614;BME280;52283;49.292;10.572;2023-06-26T00:53:57;96526.88;;;16.89;89.69
65614;BME280;52283;49.292;10.572;2023-06-26T00:56:24;96522.69;;;17.30;88.79
65614;BME280;52283;49.292;10.572;2023-06-26T00:58:50;96526.97;;;17.44;87.94
65614;BME280;52283;49.292;10.572;2023-06-26T01:01:17;96529.13;;;17.51;88.02
65614;BME280;52283;49.292;10.572;2023-06-26T01:03:51;96526.88;;;17.50;88.32
65614;BME280;52283;49.292;10.572;2023-06-26T01:06:20;96521.84;;;17.56;86.48
65614;BME280;52283;49.292;10.572;2023-06-26T01:08:49;96521.88;;;17.43;86.71
65614;BME280;52283;49.292;10.572;2023-06-26T01:11:16;96523.81;;;17.14;89.35
65614;BME280;52283;49.292;10.572;2023-06-26T01:13:44;96531.84;;;17.10;90.23
65614;BME280;52283;49.292;10.572;2023-06-26T01:16:11;96526.06;;;17.28;88.41
65614;BME280;52283;49.292;10.572;2023-06-26T01:18:39;96516.69;;;17.33;88.42
65614;BME280;52283;49.292;10.572;2023-06-26T01:21:08;96521.31;;;17.44;87.97
65614;BME280;52283;49.292;10.572;2023-06-26T01:23:38;96515.47;;;17.42;88.56
65614;BME280;52283;49.292;10.572;2023-06-26T01:26:25;96522.56;;;17.35;89.22
65614;BME280;52283;49.292;10.572;2023-06-26T01:28:53;96521.94;;;17.29;89.60
65614;BME280;52283;49.292;10.572;2023-06-26T01:31:22;96518.97;;;17.35;88.98
65614;BME280;52283;49.292;10.572;2023-06-26T01:33:50;96511.81;;;17.34;89.50
65614;BME280;52283;49.292;10.572;2023-06-26T01:36:17;96512.22;;;17.38;89.48
65614;BME280;52283;49.292;10.572;2023-06-26T01:38:43;96511.81;;;17.34;89.96
65614;BME280;52283;49.292;10.572;2023-06-26T01:41:10;96521.28;;;17.23;91.16
65614;BME280;52283;49.292;10.572;2023-06-26T01:43:46;96511.41;;;17.17;91.39
65614;BME280;52283;49.292;10.572;2023-06-26T01:46:23;96511.06;;;17.20;90.63
65614;BME280;52283;49.292;10.572;2023-06-26T01:48:56;96501.50;;;17.23;90.37
65614;BME280;52283;49.292;10.572;2023-06-26T01:51:30;96502.53;;;17.13;90.80
65614;BME280;52283;49.292;10.572;2023-06-26T01:53:59;96497.31;;;17.03;91.85
65614;BME280;52283;49.292;10.572;2023-06-26T01:56:28;96500.47;;;17.00;92.68
65614;BME280;52283;49.292;10.572;2023-06-26T01:58:56;96504.31;;;16.89;93.63
65614;BME280;52283;49.292;10.572;2023-06-26T02:01:23;96505.16;;;16.84;94.60
65614;BME280;52283;49.292;10.572;2023-06-26T02:03:50;96498.34;;;16.80;95.26
65614;BME280;52283;49.292;10.572;2023-06-26T02:06:16;96494.88;;;16.87;94.94
65614;BME280;52283;49.292;10.572;2023-06-26T02:08:43;96496.28;;;16.80;95.51
65614;BME280;52283;49.292;10.572;2023-06-26T02:11:09;96503.34;;;16.73;96.28
65614;BME280;52283;49.292;10.572;2023-06-26T02:13:36;96502.78;;;16.62;97.64
65614;BME280;52283;49.292;10.572;2023-06-26T02:16:04;96508.19;;;16.60;97.63
65614;BME280;52283;49.292;10.572;2023-06-26T02:18:30;96506.50;;;16.70;96.51
65614;BME280;52283;49.292;10.572;2023-06-26T02:20:57;96495.50;;;16.53;98.26
65614;BME280;52283;49.292;10.572;2023-06-26T02:23:23;96506.16;;;16.47;99.42
65614;BME280;52283;49.292;10.572;2023-06-26T02:25:49;96504.28;;;16.63;98.37
65614;BME280;52283;49.292;10.572;2023-06-26T02:28:16;96503.75;;;16.64;97.86
65614;BME280;52283;49.292;10.572;2023-06-26T02:30:42;96499.88;;;16.67;97.66
65614;BME280;52283;49.292;10.572;2023-06-26T02:33:10;96494.88;;;16.73;97.27
65614;BME280;52283;49.292;10.572;2023-06-26T02:35:36;96492.41;;;16.70;96.93
65614;BME280;52283;49.292;10.572;2023-06-26T02:38:03;96501.94;;;16.67;97.88
65614;BME280;52283;49.292;10.572;2023-06-26T02:40:29;96501.03;;;16.59;98.19
65614;BME280;52283;49.292;10.572;2023-06-26T02:42:56;96504.84;;;16.48;98.67
65614;BME280;52283;49.292;10.572;2023-06-26T02:45:22;96509.19;;;16.36;98.69
65614;BME280;52283;49.292;10.572;2023-06-26T02:47:49;96502.22;;;16.37;98.27
65614;BME280;52283;49.292;10.572;2023-06-26T02:50:16;96494.13;;;16.46;99.14
65614;BME280;52283;49.292;10.572;2023-06-26T02:52:43;96499.78;;;16.01;100.00
65614;BME280;52283;49.292;10.572;2023-06-26T02:55:09;96496.69;;;16.18;100.00
65614;BME280;52283;49.292;10.572;2023-06-26T02:57:36;96487.47;;;16.31;100.00
65614;BME280;52283;49.292;10.572;2023-06-26T03:00:03;96485.31;;;16.37;100.00
65614;BME280;52283;49.292;10.572;2023-06-26T03:02:31;96486.41;;;16.34;100.00
65614;BME280;52283;49.292;10.572;2023-06-26T03:04:58;96481.72;;;16.36;100.00
65614;BME280;52283;49.292;10.572;2023-06-26T03:07:26;96483.25;;;16.24;100.00
65614;BME280;52283;49.292;10.572;2023-06-26T03:09:52;96484.03;;;16.25;100.00
65614;BME280;52283;49.292;10.572;2023-06-26T03:12:19;96484.13;;;16.32;99.81
65614;BME280;52283;49.292;10.572;2023-06-26T03:14:45;96478.59;;;16.27;99.97
65614;BME280;52283;49.292;10.572;2023-06-26T03:17:11;96483.56;;;16.34;99.02
65614;BME280;52283;49.292;10.572;2023-06-26T03:19:38;96480.97;;;16.36;98.98
65614;BME280;52283;49.292;10.572;2023-06-26T03:22:04;96475.31;;;16.23;99.31
65614;BME280;52283;49.292;10.572;2023-06-26T03:24:32;96479.97;;;16.20;99.56
65614;BME280;52283;49.292;10.572;2023-06-26T03:26:59;96491.22;;;15.94;100.00
65614;BME280;52283;49.292;10.572;2023-06-26T03:29:26;96487.69;;;16.06;100.00
65614;BME280;52283;49.292;10.572;2023-06-26T03:31:52;96487.31;;;15.97;100.00
65614;BME280;52283;49.292;10.572;2023-06-26T03:34:19;96485.16;;;15.90;100.00
65614;BME280;52283;49.292;10.572;2023-06-26T03:36:46;96482.34;;;15.90;100.00
65614;BME280;52283;49.292;10.572;2023-06-26T03:39:13;96479.84;;;15.86;100.00
65614;BME280;52283;49.292;10.572;2023-06-26T03:41:40;96475.03;;;15.81;100.00
65614;BME280;52283;49.292;10.572;2023-06-26T03:44:07;96475.84;;;15.95;100.00
65614;BME280;52283;49.292;10.572;2023-06-26T03:46:33;96475.13;;;15.75;100.00
65614;BME280;52283;49.292;10.572;2023-06-26T03:49:00;96478.53;;;15.87;100.00
65614;BME280;52283;49.292;10.572;2023-06-26T03:51:26;96474.59;;;15.77;100.00
65614;BME280;52283;49.292;10.572;2023-06-26T03:53:53;96474.16;;;15.73;100.00
65614;BME280;52283;49.292;10.572;2023-06-26T03:56:19;96477.09;;;15.80;100.00
65614;BME280;52283;49.292;10.572;2023-06-26T03:58:47;96474.06;;;15.78;100.00
65614;BME280;52283;49.292;10.572;2023-06-26T04:01:13;96469.81;;;15.72;100.00
65614;BME280;52283;49.292;10.572;2023-06-26T04:03:40;96470.00;;;15.61;100.00
65614;BME280;52283;49.292;10.572;2023-06-26T04:06:06;96477.69;;;15.60;100.00
65614;BME280;52283;49.292;10.572;2023-06-26T04:08:33;96478.91;;;15.65;100.00
65614;BME280;52283;49.292;10.572;2023-06-26T04:10:59;96478.22;;;15.59;100.00
65614;BME280;52283;49.292;10.572;2023-06-26T04:13:26;96483.97;;;15.85;100.00
65614;BME280;52283;49.292;10.572;2023-06-26T04:15:53;96479.94;;;15.94;100.00
65614;BME280;52283;49.292;10.572;2023-06-26T04:18:20;96486.56;;;15.83;100.00
65614;BME280;52283;49.292;10.572;2023-06-26T04:21:04;96479.84;;;15.99;100.00
65614;BME280;52283;49.292;10.572;2023-06-26T04:23:31;96477.50;;;16.16;100.00
65614;BME280;52283;49.292;10.572;2023-06-26T04:25:58;96474.13;;;16.18;100.00
65614;BME280;52283;49.292;10.572;2023-06-26T04:28:25;96475.44;;;16.17;100.00
65614;BME280;52283;49.292;10.572;2023-06-26T04:30:51;96476.94;;;16.18;100.00
65614;BME280;52283;49.292;10.572;2023-06-26T04:33:20;96483.00;;;16.22;100.00
65614;BME280;52283;49.292;10.572;2023-06-26T04:35:46;96475.13;;;16.34;100.00
65614;BME280;52283;49.292;10.572;2023-06-26T04:38:14;96473.91;;;16.42;100.00
65614;BME280;52283;49.292;10.572;2023-06-26T04:40:40;96475.22;;;16.55;100.00
65614;BME280;52283;49.292;10.572;2023-06-26T04:43:07;96476.63;;;16.61;100.00
65614;BME280;52283;49.292;10.572;2023-06-26T04:45:33;96474.22;;;16.65;100.00
65614;BME280;52283;49.292;10.572;2023-06-26T04:48:00;96479.59;;;16.69;100.00
65614;BME280;52283;49.292;10.572;2023-06-26T04:50:28;96474.03;;;16.76;100.00
65614;BME280;52283;49.292;10.572;2023-06-26T04:52:55;96473.06;;;16.74;100.00
65614;BME280;52283;49.292;10.572;2023-06-26T04:55:23;96473.69;;;16.80;100.00
65614;BME280;52283;49.292;10.572;2023-06-26T04:57:50;96471.63;;;16.94;100.00
65614;BME280;52283;49.292;10.572;2023-06-26T05:00:17;96470.41;;;17.02;100.00
65614;BME280;52283;49.292;10.572;2023-06-26T05:02:44;96471.06;;;17.09;100.00
65614;BME280;52283;49.292;10.572;2023-06-26T05:05:10;96464.78;;;17.23;100.00
65614;BME280;52283;49.292;10.572;2023-06-26T05:07:38;96460.28;;;17.41;98.52
65614;BME280;52283;49.292;10.572;2023-06-26T05:10:05;96464.41;;;17.40;98.21
65614;BME280;52283;49.292;10.572;2023-06-26T05:12:33;96470.78;;;17.54;97.04
65614;BME280;52283;49.292;10.572;2023-06-26T05:14:59;96468.09;;;17.69;95.71
65614;BME280;52283;49.292;10.572;2023-06-26T05:17:26;96459.75;;;17.84;95.52
65614;BME280;52283;49.292;10.572;2023-06-26T05:19:52;96459.84;;;17.92;93.97
65614;BME280;52283;49.292;10.572;2023-06-26T05:22:19;96458.13;;;18.17;92.13
65614;BME280;52283;49.292;10.572;2023-06-26T05:24:48;96461.22;;;18.27;91.31
65614;BME280;52283;49.292;10.572;2023-06-26T05:27:16;96464.50;;;18.39;91.27
65614;BME280;52283;49.292;10.572;2023-06-26T05:29:46;96452.44;;;18.38;89.68
65614;BME280;52283;49.292;10.572;2023-06-26T05:32:15;96453.88;;;18.60;88.52
65614;BME280;52283;49.292;10.572;2023-06-26T05:34:43;96449.41;;;18.72;87.23
65614;BME280;52283;49.292;10.572;2023-06-26T05:37:13;96438.59;;;18.99;85.87
65614;BME280;52283;49.292;10.572;2023-06-26T05:39:41;96443.34;;;19.04;85.01
65614;BME280;52283;49.292;10.572;2023-06-26T05:42:12;96434.31;;;19.21;83.17
65614;BME280;52283;49.292;10.572;2023-06-26T05:44:38;96432.63;;;19.33;81.57
65614;BME280;52283;49.292;10.572;2023-06-26T05:47:05;96423.41;;;19.48;80.62
65614;BME280;52283;49.292;10.572;2023-06-26T05:49:31;96428.75;;;19.67;79.35
65614;BME280;52283;49.292;10.572;2023-06-26T05:51:58;96415.72;;;19.87;78.09
65614;BME280;52283;49.292;10.572;2023-06-26T05:54:25;96419.84;;;20.16;76.92
65614;BME280;52283;49.292;10.572;2023-06-26T05:56:56;96422.09;;;20.33;75.48
65614;BME280;52283;49.292;10.572;2023-06-26T05:59:26;96415.66;;;20.48;75.10
65614;BME280;52283;49.292;10.572;2023-06-26T06:01:53;96404.94;;;20.86;69.36
65614;BME280;52283;49.292;10.572;2023-06-26T06:04:19;96404.19;;;21.18;69.21
65614;BME280;52283;49.292;10.572;2023-06-26T06:06:46;96394.69;;;21.56;65.98
65614;BME280;52283;49.292;10.572;2023-06-26T06:09:12;96399.34;;;21.69;65.34
65614;BME280;52283;49.292;10.572;2023-06-26T06:11:39;96402.47;;;22.05;65.04
65614;BME280;52283;49.292;10.572;2023-06-26T06:14:05;96390.44;;;22.14;61.90
65614;BME280;52283;49.292;10.572;2023-06-26T06:16:33;96399.25;;;22.43;58.12
65614;BME280;52283;49.292;10.572;2023-06-26T06:18:59;96397.72;;;22.77;59.85
65614;BME280;52283;49.292;10.572;2023-06-26T06:21:28;96382.75;;;22.76;53.92
65614;BME280;52283;49.292;10.572;2023-06-26T06:23:55;96377.97;;;22.96;54.02
65614;BME280;52283;49.292;10.572;2023-06-26T06:26:21;96379.06;;;23.10;53.82
65614;BME280;52283;49.292;10.572;2023-06-26T06:28:48;96382.78;;;23.30;52.61
65614;BME280;52283;49.292;10.572;2023-06-26T06:31:14;96375.19;;;23.33;51.65
65614;BME280;52283;49.292;10.572;2023-06-26T06:33:42;96375.53;;;23.47;51.82
65614;BME280;52283;49.292;10.572;2023-06-26T06:36:09;96378.03;;;23.60;50.42
65614;BME280;52283;49.292;10.572;2023-06-26T06:38:35;96379.28;;;23.76;50.09
65614;BME280;52283;49.292;10.572;2023-06-26T06:41:02;96369.66;;;23.71;50.61
65614;BME280;52283;49.292;10.572;2023-06-26T06:43:28;96372.00;;;24.02;49.83
65614;BME280;52283;49.292;10.572;2023-06-26T06:45:54;96366.63;;;24.16;49.15
65614;BME280;52283;49.292;10.572;2023-06-26T06:48:21;96378.91;;;24.09;49.87
65614;BME280;52283;49.292;10.572;2023-06-26T06:50:49;96375.75;;;24.05;49.09
65614;BME280;52283;49.292;10.572;2023-06-26T06:53:15;96371.09;;;24.09;48.19
65614;BME280;52283;49.292;10.572;2023-06-26T06:55:42;96369.47;;;24.16;48.37
65614;BME280;52283;49.292;10.572;2023-06-26T06:58:08;96371.78;;;24.46;48.43
65614;BME280;52283;49.292;10.572;2023-06-26T07:00:34;96371.00;;;24.36;48.01
65614;BME280;52283;49.292;10.572;2023-06-26T07:03:01;96373.38;;;24.20;48.78
65614;BME280;52283;49.292;10.572;2023-06-26T07:05:28;96375.75;;;24.05;49.58
65614;BME280;52283;49.292;10.572;2023-06-26T07:07:56;96381.25;;;24.39;49.24
65614;BME280;52283;49.292;10.572;2023-06-26T07:10:22;96373.16;;;24.65;48.55
65614;BME280;52283;49.292;10.572;2023-06-26T07:12:48;96368.94;;;24.85;47.64
65614;BME280;52283;49.292;10.572;2023-06-26T07:15:17;96370.59;;;24.59;49.19
65614;BME280;52283;49.292;10.572;2023-06-26T07:17:43;96363.97;;;24.47;49.12
65614;BME280;52283;49.292;10.572;2023-06-26T07:20:10;96371.94;;;24.68;49.30
65614;BME280;52283;49.292;10.572;2023-06-26T07:22:41;96372.66;;;24.97;49.36
65614;BME280;52283;49.292;10.572;2023-06-26T07:25:08;96362.91;;;24.90;48.15
65614;BME280;52283;49.292;10.572;2023-06-26T07:27:35;96371.47;;;24.90;49.40
65614;BME280;52283;49.292;10.572;2023-06-26T07:30:02;96372.69;;;25.07;48.87
65614;BME280;52283;49.292;10.572;2023-06-26T07:32:28;96372.22;;;25.10;48.87
65614;BME280;52283;49.292;10.572;2023-06-26T07:34:55;96370.16;;;25.51;48.13
65614;BME280;52283;49.292;10.572;2023-06-26T07:37:22;96367.72;;;25.67;46.71
65614;BME280;52283;49.292;10.572;2023-06-26T07:39:48;96363.97;;;25.55;47.58
65614;BME280;52283;49.292;10.572;2023-06-26T07:42:16;96360.25;;;25.43;47.41
65614;BME280;52283;49.292;10.572;2023-06-26T07:44:43;96361.50;;;25.61;47.01
65614;BME280;52283;49.292;10.572;2023-06-26T07:47:09;96362.31;;;25.93;47.15
65614;BME280;52283;49.292;10.572;2023-06-26T07:49:36;96349.47;;;26.03;44.72
65614;BME280;52283;49.292;10.572;2023-06-26T07:52:04;96354.09;;;26.30;44.04
65614;BME280;52283;49.292;10.572;2023-06-26T07:54:31;96347.94;;;26.88;42.85
65614;BME280;52283;49.292;10.572;2023-06-26T07:56:59;96346.94;;;26.95;42.45
65614;BME280;52283;49.292;10.572;2023-06-26T07:59:28;96352.31;;;27.45;41.36
65614;BME280;52283;49.292;10.572;2023-06-26T08:01:56;96347.44;;;26.91;41.09
65614;BME280;52283;49.292;10.572;2023-06-26T08:04:24;96344.66;;;27.15;40.69
65614;BME280;52283;49.292;10.572;2023-06-26T08:06:52;96347.41;;;27.13;40.73
65614;BME280;52283;49.292;10.572;2023-06-26T08:09:20;96350.84;;;26.99;41.53
65614;BME280;52283;49.292;10.572;2023-06-26T08:11:47;96346.53;;;27.10;41.63
65614;BME280;52283;49.292;10.572;2023-06-26T08:14:14;96342.53;;;27.72;39.95
65614;BME280;52283;49.292;10.572;2023-06-26T08:16:42;96344.38;;;27.90;39.70
65614;BME280;52283;49.292;10.572;2023-06-26T08:19:10;96341.16;;;27.73;40.15
65614;BME280;52283;49.292;10.572;2023-06-26T08:21:36;96337.25;;;27.56;39.61
65614;BME280;52283;49.292;10.572;2023-06-26T08:24:03;96332.09;;;27.43;40.28
65614;BME280;52283;49.292;10.572;2023-06-26T08:26:29;96332.53;;;27.73;39.45
65614;BME280;52283;49.292;10.572;2023-06-26T08:28:56;96337.75;;;27.88;38.35
65614;BME280;52283;49.292;10.572;2023-06-26T08:31:23;96334.66;;;27.72;39.36
65614;BME280;52283;49.292;10.572;2023-06-26T08:33:50;96335.75;;;28.02;38.79
65614;BME280;52283;49.292;10.572;2023-06-26T08:36:17;96330.34;;;28.20;38.40
65614;BME280;52283;49.292;10.572;2023-06-26T08:38:44;96331.13;;;28.09;38.37
65614;BME280;52283;49.292;10.572;2023-06-26T08:41:10;96327.88;;;28.26;37.70
65614;BME280;52283;49.292;10.572;2023-06-26T08:43:37;96338.25;;;27.96;38.28
65614;BME280;52283;49.292;10.572;2023-06-26T08:46:03;96332.84;;;28.37;37.05
65614;BME280;52283;49.292;10.572;2023-06-26T08:48:32;96339.09;;;28.10;36.82
65614;BME280;52283;49.292;10.572;2023-06-26T08:51:01;96342.50;;;27.95;37.49
65614;BME280;52283;49.292;10.572;2023-06-26T08:53:38;96328.34;;;28.11;36.82
65614;BME280;52283;49.292;10.572;2023-06-26T08:56:07;96345.38;;;27.83;37.69
65614;BME280;52283;49.292;10.572;2023-06-26T08:58:34;96337.88;;;28.02;37.18
65614;BME280;52283;49.292;10.572;2023-06-26T09:01:04;96334.75;;;28.33;36.21
65614;BME280;52283;49.292;10.572;2023-06-26T09:03:30;96332.13;;;28.02;36.41
65614;BME280;52283;49.292;10.572;2023-06-26T09:05:59;96340.59;;;28.23;36.29
65614;BME280;52283;49.292;10.572;2023-06-26T09:08:25;96329.50;;;28.06;34.97
65614;BME280;52283;49.292;10.572;2023-06-26T09:10:52;96334.84;;;28.72;35.30
65614;BME280;52283;49.292;10.572;2023-06-26T09:13:19;96338.88;;;28.67;35.17
65614;BME280;52283;49.292;10.572;2023-06-26T09:15:46;96338.00;;;28.64;35.79
65614;BME280;52283;49.292;10.572;2023-06-26T09:18:12;96320.19;;;28.79;34.13
65614;BME280;52283;49.292;10.572;2023-06-26T09:20:39;96314.41;;;29.17;32.57
65614;BME280;52283;49.292;10.572;2023-06-26T09:23:07;96321.34;;;28.74;33.90
65614;BME280;52283;49.292;10.572;2023-06-26T09:25:37;96308.06;;;29.06;31.63
65614;BME280;52283;49.292;10.572;2023-06-26T09:28:05;96312.38;;;29.58;31.47
65614;BME280;52283;49.292;10.572;2023-06-26T09:30:32;96312.94;;;29.82;31.63
65614;BME280;52283;49.292;10.572;2023-06-26T09:33:13;96315.38;;;29.74;32.69
65614;BME280;52283;49.292;10.572;2023-06-26T09:35:40;96316.78;;;29.34;33.01
65614;BME280;52283;49.292;10.572;2023-06-26T09:38:07;96307.69;;;29.65;32.68
65614;BME280;52283;49.292;10.572;2023-06-26T09:40:34;96325.00;;;29.39;32.56
65614;BME280;52283;49.292;10.572;2023-06-26T09:43:03;96320.47;;;29.48;31.89
65614;BME280;52283;49.292;10.572;2023-06-26T09:45:31;96310.47;;;30.18;31.03
65614;BME280;52283;49.292;10.572;2023-06-26T09:48:00;96309.31;;;29.82;30.98
65614;BME280;52283;49.292;10.572;2023-06-26T09:50:27;96301.50;;;29.98;31.21
65614;BME280;52283;49.292;10.572;2023-06-26T09:52:53;96302.47;;;29.89;31.15
65614;BME280;52283;49.292;10.572;2023-06-26T09:55:21;96312.59;;;30.31;31.41
65614;BME280;52283;49.292;10.572;2023-06-26T09:57:49;96298.31;;;30.76;30.70
65614;BME280;52283;49.292;10.572;2023-06-26T10:00:17;96304.72;;;30.31;31.53
65614;BME280;52283;49.292;10.572;2023-06-26T10:02:44;96306.09;;;30.30;31.15
65614;BME280;52283;49.292;10.572;2023-06-26T10:05:10;96306.34;;;30.21;30.87
65614;BME280;52283;49.292;10.572;2023-06-26T10:07:38;96302.16;;;30.10;30.78
65614;BME280;52283;49.292;10.572;2023-06-26T10:10:07;96303.22;;;29.62;31.67
65614;BME280;52283;49.292;10.572;2023-06-26T10:12:36;96300.00;;;30.38;30.64
65614;BME280;52283;49.292;10.572;2023-06-26T10:15:03;96304.06;;;30.19;30.78
65614;BME280;52283;49.292;10.572;2023-06-26T10:17:32;96301.63;;;30.00;31.12
65614;BME280;52283;49.292;10.572;2023-06-26T10:20:01;96292.56;;;29.92;31.24
65614;BME280;52283;49.292;10.572;2023-06-26T10:22:33;96290.44;;;30.20;31.46
65614;BME280;52283;49.292;10.572;2023-06-26T10:25:04;96297.44;;;29.48;32.30
65614;BME280;52283;49.292;10.572;2023-06-26T10:27:33;96307.66;;;30.47;31.68
65614;BME280;52283;49.292;10.572;2023-06-26T10:30:05;96296.41;;;30.10;31.47
65614;BME280;52283;49.292;10.572;2023-06-26T10:32:33;96306.31;;;29.66;32.21
65614;BME280;52283;49.292;10.572;2023-06-26T10:35:00;96307.28;;;29.84;32.41
65614;BME280;52283;49.292;10.572;2023-06-26T10:37:44;96315.28;;;30.13;31.97
65614;BME280;52283;49.292;10.572;2023-06-26T10:40:12;96294.84;;;30.50;31.01
65614;BME280;52283;49.292;10.572;2023-06-26T10:42:39;96299.28;;;30.24;30.63
65614;BME280;52283;49.292;10.572;2023-06-26T10:45:13;96294.94;;;30.66;30.74
65614;BME280;52283;49.292;10.572;2023-06-26T10:47:41;96294.66;;;30.32;31.28
65614;BME280;52283;49.292;10.572;2023-06-26T10:50:20;96299.00;;;30.90;31.11
65614;BME280;52283;49.292;10.572;2023-06-26T10:53:07;96300.63;;;30.50;31.10
65614;BME280;52283;49.292;10.572;2023-06-26T10:55:34;96296.72;;;30.59;30.90
65614;BME280;52283;49.292;10.572;2023-06-26T10:58:00;96312.19;;;30.23;31.52
65614;BME280;52283;49.292;10.572;2023-06-26T11:00:29;96313.44;;;30.33;30.77
65614;BME280;52283;49.292;10.572;2023-06-26T11:02:55;96302.00;;;30.63;30.58
65614;BME280;52283;49.292;10.572;2023-06-26T11:05:25;96284.56;;;30.61;30.29
65614;BME280;52283;49.292;10.572;2023-06-26T11:08:06;96295.13;;;30.70;30.28
65614;BME280;52283;49.292;10.572;2023-06-26T11:10:48;96295.13;;;31.00;30.44
65614;BME280;52283;49.292;10.572;2023-06-26T11:13:16;96300.34;;;30.60;30.74
65614;BME280;52283;49.292;10.572;2023-06-26T11:15:45;96290.91;;;30.44;30.80
65614;BME280;52283;49.292;10.572;2023-06-26T11:18:12;96295.84;;;30.27;30.94
65614;BME280;52283;49.292;10.572;2023-06-26T11:20:39;96293.38;;;30.79;30.48
65614;BME280;52283;49.292;10.572;2023-06-26T11:23:07;96297.56;;;31.05;30.10
65614;BME280;52283;49.292;10.572;2023-06-26T11:25:34;96292.75;;;29.96;30.17
65614;BME280;52283;49.292;10.572;2023-06-26T11:28:02;96285.94;;;31.03;29.39
65614;BME280;52283;49.292;10.572;2023-06-26T11:30:28;96291.50;;;31.15;29.18
65614;BME280;52283;49.292;10.572;2023-06-26T11:33:03;96281.53;;;31.47;28.88
65614;BME280;52283;49.292;10.572;2023-06-26T11:35:30;96301.44;;;31.26;29.65
65614;BME280;52283;49.292;10.572;2023-06-26T11:37:57;96288.94;;;31.21;29.57
65614;BME280;52283;49.292;10.572;2023-06-26T11:40:25;96285.34;;;30.61;30.05
65614;BME280;52283;49.292;10.572;2023-06-26T11:42:55;96288.41;;;31.40;29.77
65614;BME280;52283;49.292;10.572;2023-06-26T11:45:22;96286.00;;;31.82;28.91
65614;BME280;52283;49.292;10.572;2023-06-26T11:47:49;96276.56;;;31.34;29.11
65614;BME280;52283;49.292;10.572;2023-06-26T11:50:16;96290.28;;;31.49;29.83
65614;BME280;52283;49.292;10.572;2023-06-26T11:52:43;96292.50;;;30.90;30.22
65614;BME280;52283;49.292;10.572;2023-06-26T11:55:10;96277.22;;;31.64;30.12
65614;BME280;52283;49.292;10.572;2023-06-26T11:57:37;96282.34;;;31.81;30.08
65614;BME280;52283;49.292;10.572;2023-06-26T12:00:11;96267.31;;;30.47;32.54
65614;BME280;52283;49.292;10.572;2023-06-26T12:02:38;96299.38;;;29.98;33.05
65614;BME280;52283;49.292;10.572;2023-06-26T12:05:06;96298.84;;;30.29;32.96
65614;BME280;52283;49.292;10.572;2023-06-26T12:07:34;96299.00;;;30.04;33.09
65614;BME280;52283;49.292;10.572;2023-06-26T12:10:02;96301.53;;;29.84;33.98
65614;BME280;52283;49.292;10.572;2023-06-26T12:12:30;96310.56;;;29.92;34.79
65614;BME280;52283;49.292;10.572;2023-06-26T12:14:58;96301.00;;;30.58;32.91
65614;BME280;52283;49.292;10.572;2023-06-26T12:17:25;96293.75;;;30.71;33.10
65614;BME280;52283;49.292;10.572;2023-06-26T12:19:52;96293.72;;;31.77;31.89
65614;BME280;52283;49.292;10.572;2023-06-26T12:22:18;96290.72;;;31.60;32.37
65614;BME280;52283;49.292;10.572;2023-06-26T12:24:47;96281.66;;;32.14;31.37
65614;BME280;52283;49.292;10.572;2023-06-26T12:27:14;96298.34;;;31.21;32.83
65614;BME280;52283;49.292;10.572;2023-06-26T12:29:49;96291.13;;;31.07;33.57
65614;BME280;52283;49.292;10.572;2023-06-26T12:32:15;96295.72;;;31.12;33.58
65614;BME280;52283;49.292;10.572;2023-06-26T12:34:47;96299.41;;;31.28;34.17
65614;BME280;52283;49.292;10.572;2023-06-26T12:37:14;96281.94;;;30.81;34.00
65614;BME280;52283;49.292;10.572;2023-06-26T12:39:50;96298.66;;;30.98;34.19
65614;BME280;52283;49.292;10.572;2023-06-26T12:42:17;96295.13;;;30.56;34.22
65614;BME280;52283;49.292;10.572;2023-06-26T12:44:44;96292.97;;;30.27;34.89
65614;BME280;52283;49.292;10.572;2023-06-26T12:47:12;96301.06;;;29.76;35.58
65614;BME280;52283;49.292;10.572;2023-06-26T12:49:40;96302.38;;;29.87;35.67